FDX2876 RPVE-RPVB
Flight info
| Callsign | FDX2876 |
|---|---|
| Flight time | N/A |
| Altitude | 15000 |
| Route | KLO8A KLO TR8 GALIA GALIA3P |
| Aircraft | B738/M-SDE2E3FGHIRWXY/LB1 |
Departure
| Time | 2026-05-06 08:11 |
|---|---|
| Airport | Godofredo P. Ramos Airport (RPVE) |
Arrival
| Time | N/A |
|---|---|
| Airport | Bacolod-Silay International Airport (RPVB) |
| Time | Latitude | Longitude | Altitude | Speed | Heading |
|---|---|---|---|---|---|
| 2026-05-06 07:53 | 11.92508 | 121.96303 | 29 ft | 0 kts | 63° |
| 2026-05-06 08:03 | 11.92503 | 121.96294 | 30 ft | 2 kts | 61° |
| 2026-05-06 08:03 | 11.92495 | 121.96279 | 32 ft | 2 kts | 50° |
| 2026-05-06 08:03 | 11.92481 | 121.96273 | 29 ft | 2 kts | 334° |
| 2026-05-06 08:04 | 11.92478 | 121.96275 | 26 ft | 0 kts | 333° |
| 2026-05-06 08:06 | 11.92533 | 121.96246 | 27 ft | 13 kts | 333° |
| 2026-05-06 08:07 | 11.92642 | 121.96199 | 26 ft | 19 kts | 346° |
| 2026-05-06 08:07 | 11.92759 | 121.96144 | 26 ft | 19 kts | 333° |
| 2026-05-06 08:07 | 11.92799 | 121.96078 | 25 ft | 10 kts | 242° |
| 2026-05-06 08:07 | 11.92765 | 121.96013 | 26 ft | 11 kts | 243° |
| 2026-05-06 08:08 | 11.92728 | 121.95938 | 30 ft | 12 kts | 243° |
| 2026-05-06 08:08 | 11.92690 | 121.95864 | 25 ft | 12 kts | 243° |
| 2026-05-06 08:08 | 11.92647 | 121.95778 | 26 ft | 16 kts | 243° |
| 2026-05-06 08:08 | 11.92590 | 121.95665 | 25 ft | 20 kts | 243° |
| 2026-05-06 08:09 | 11.92520 | 121.95525 | 23 ft | 24 kts | 243° |
| 2026-05-06 08:09 | 11.92440 | 121.95366 | 24 ft | 27 kts | 243° |
| 2026-05-06 08:09 | 11.92349 | 121.95186 | 24 ft | 30 kts | 242° |
| 2026-05-06 08:09 | 11.92255 | 121.95038 | 28 ft | 8 kts | 241° |
| 2026-05-06 08:10 | 11.92263 | 121.95030 | 27 ft | 2 kts | 23° |
| 2026-05-06 08:10 | 11.92280 | 121.95050 | 30 ft | 5 kts | 57° |
| 2026-05-06 08:10 | 11.92353 | 121.95195 | 25 ft | 60 kts | 63° |
| 2026-05-06 08:10 | 11.92671 | 121.95832 | 27 ft | 138 kts | 64° |
| 2026-05-06 08:11 | 11.93164 | 121.96841 | 393 ft | 173 kts | 65° |
| 2026-05-06 08:11 | 11.93713 | 121.97962 | 1327 ft | 173 kts | 63° |
| 2026-05-06 08:11 | 11.94282 | 121.99085 | 2144 ft | 187 kts | 63° |
| 2026-05-06 08:11 | 11.94926 | 122.00362 | 2489 ft | 213 kts | 62° |
| 2026-05-06 08:12 | 11.95564 | 122.01766 | 3084 ft | 221 kts | 76° |
| 2026-05-06 08:12 | 11.95518 | 122.03331 | 3759 ft | 231 kts | 105° |
| 2026-05-06 08:12 | 11.94725 | 122.04882 | 4125 ft | 260 kts | 123° |
| 2026-05-06 08:12 | 11.93600 | 122.06367 | 4947 ft | 268 kts | 126° |
| 2026-05-06 08:13 | 11.92414 | 122.07843 | 5892 ft | 269 kts | 127° |
| 2026-05-06 08:13 | 11.91218 | 122.09320 | 6817 ft | 271 kts | 127° |
| 2026-05-06 08:13 | 11.90008 | 122.10825 | 7630 ft | 277 kts | 128° |
| 2026-05-06 08:13 | 11.88779 | 122.12365 | 8431 ft | 282 kts | 128° |
| 2026-05-06 08:14 | 11.87534 | 122.13932 | 9264 ft | 287 kts | 128° |
| 2026-05-06 08:14 | 11.86272 | 122.15529 | 10058 ft | 291 kts | 128° |
| 2026-05-06 08:14 | 11.84979 | 122.17170 | 10672 ft | 302 kts | 128° |
| 2026-05-06 08:14 | 11.83649 | 122.18860 | 11371 ft | 308 kts | 128° |
| 2026-05-06 08:15 | 11.82303 | 122.20573 | 12154 ft | 311 kts | 128° |